Time;durP1;ratioP1;P1;durP2;ratioP2;P2;SDS_P1;SDS_P2;PMS_P1;PMS_P2;Temp;Humidity;BMP_temperature;BMP_pressure;BME280_temperature;BME280_humidity;BME280_pressure;Samples;Min_cycle;Max_cycle;Signal;HPM_P1;HPM_P2
2022/09/21 00:01:08;;;;;;;6.37;2.25;;;7.40;99.90;;;;;;7367239;32;20183;-61
2022/09/21 00:05:10;;;;;;;8.88;2.72;;;7.40;99.90;;;;;;7369186;32;20150;-61
2022/09/21 00:09:11;;;;;;;6.68;2.35;;;7.40;99.90;;;;;;7370044;32;20106;-60
2022/09/21 00:13:13;;;;;;;4.90;2.40;;;7.50;99.90;;;;;;7374523;32;20103;-62
2022/09/21 00:17:15;;;;;;;5.75;2.78;;;7.60;99.90;;;;;;7379911;32;20644;-63
2022/09/21 00:21:17;;;;;;;9.13;3.20;;;7.70;99.90;;;;;;7369477;32;20103;-61
2022/09/21 00:25:19;;;;;;;5.25;2.85;;;7.70;99.90;;;;;;7366461;31;20098;-62
2022/09/21 00:29:21;;;;;;;5.07;2.70;;;7.80;99.90;;;;;;7375959;31;20099;-62
2022/09/21 00:33:23;;;;;;;8.57;3.22;;;7.90;99.90;;;;;;7369162;32;20437;-63
2022/09/21 00:37:26;;;;;;;7.37;2.62;;;7.90;99.90;;;;;;7366931;32;20190;-61
2022/09/21 00:41:30;;;;;;;10.23;2.75;;;7.90;99.90;;;;;;7363978;32;20108;-61
2022/09/21 00:45:31;;;;;;;10.85;2.90;;;7.90;99.90;;;;;;7373508;32;20226;-62
2022/09/21 00:49:35;;;;;;;7.75;2.90;;;8.00;99.90;;;;;;7375524;32;20265;-62
2022/09/21 00:53:38;;;;;;;9.60;2.87;;;8.00;99.90;;;;;;7375620;32;20126;-62
2022/09/21 00:57:41;;;;;;;7.30;2.83;;;8.00;99.90;;;;;;7379278;32;20095;-63
2022/09/21 01:01:43;;;;;;;9.68;3.20;;;8.00;99.90;;;;;;7385834;31;20125;-61
2022/09/21 01:05:45;;;;;;;6.40;3.22;;;7.90;99.90;;;;;;7374413;32;20621;-61
2022/09/21 01:09:50;;;;;;;7.85;2.58;;;7.90;99.90;;;;;;7374406;32;20247;-61
2022/09/21 01:13:58;;;;;;;8.00;2.92;;;7.80;99.90;;;;;;7368096;32;20780;-61
2022/09/21 01:18:25;;;;;;;10.65;3.03;;;7.70;99.90;;;;;;7363536;32;20131;-63
2022/09/21 01:22:55;;;;;;;10.73;2.92;;;7.70;99.90;;;;;;7355187;32;20137;-60
2022/09/21 01:27:16;;;;;;;6.30;2.50;;;7.60;99.90;;;;;;7361623;32;20125;-60
2022/09/21 01:31:25;;;;;;;5.80;2.50;;;7.50;99.90;;;;;;7369341;32;20104;-60
2022/09/21 01:35:32;;;;;;;5.47;2.30;;;7.40;99.90;;;;;;7361329;32;20772;-60
2022/09/21 01:39:35;;;;;;;7.47;3.05;;;7.40;99.90;;;;;;7378617;32;20210;-61
2022/09/21 01:43:41;;;;;;;6.20;2.40;;;7.40;99.90;;;;;;7368545;32;20104;-60
2022/09/21 01:47:46;;;;;;;10.48;2.62;;;7.30;99.90;;;;;;7372268;32;20129;-60
2022/09/21 01:51:55;;;;;;;8.25;2.70;;;7.20;99.90;;;;;;7377435;32;20108;-60
2022/09/21 01:56:03;;;;;;;6.50;2.65;;;7.10;99.90;;;;;;7390128;32;20126;-60
2022/09/21 02:00:07;;;;;;;5.32;2.10;;;7.10;99.90;;;;;;7369995;32;20214;-61
2022/09/21 02:04:11;;;;;;;5.75;2.30;;;7.10;99.90;;;;;;7381264;32;20107;-62
2022/09/21 02:08:13;;;;;;;7.15;2.53;;;7.00;99.90;;;;;;7371264;32;20095;-63
2022/09/21 02:12:15;;;;;;;6.12;2.85;;;7.00;99.90;;;;;;7372058;32;20180;-65
2022/09/21 02:16:39;;;;;;;5.57;2.33;;;7.00;99.90;;;;;;7359224;32;20119;-62
2022/09/21 02:20:50;;;;;;;5.50;2.80;;;7.00;99.90;;;;;;7370496;32;20110;-62
2022/09/21 02:25:08;;;;;;;7.50;2.60;;;6.90;99.90;;;;;;7364803;32;20107;-62
2022/09/21 02:29:34;;;;;;;6.20;2.97;;;6.90;99.90;;;;;;7376668;32;20108;-61
2022/09/21 02:33:58;;;;;;;7.00;3.30;;;6.90;99.90;;;;;;7381354;32;20198;-63
2022/09/21 02:38:16;;;;;;;10.10;3.35;;;6.80;99.90;;;;;;7366556;32;20103;-61
2022/09/21 02:42:25;;;;;;;5.70;2.67;;;6.80;99.90;;;;;;7375676;32;20111;-61
2022/09/21 02:46:53;;;;;;;7.82;2.78;;;6.70;99.90;;;;;;7380961;31;20130;-61
2022/09/21 02:50:58;;;;;;;8.52;2.83;;;6.70;99.90;;;;;;7376239;32;20106;-61
2022/09/21 02:55:01;;;;;;;5.32;2.53;;;6.70;99.90;;;;;;7377010;32;20091;-61
2022/09/21 02:59:05;;;;;;;8.07;2.70;;;6.70;99.90;;;;;;7384489;32;20110;-61
2022/09/21 03:03:23;;;;;;;4.45;2.45;;;6.60;99.90;;;;;;7374962;31;20561;-61
2022/09/21 03:07:25;;;;;;;8.02;2.80;;;6.60;99.90;;;;;;7385508;32;20178;-61
2022/09/21 03:11:26;;;;;;;9.57;3.20;;;6.60;99.90;;;;;;7374966;32;20103;-61
2022/09/21 03:15:28;;;;;;;6.95;2.78;;;6.60;99.90;;;;;;7364648;32;20137;-61
2022/09/21 03:19:30;;;;;;;3.67;2.25;;;6.50;99.90;;;;;;7379540;32;20095;-61
2022/09/21 03:23:31;;;;;;;5.53;2.85;;;6.50;99.90;;;;;;7386915;32;20107;-61
2022/09/21 03:27:33;;;;;;;6.62;2.62;;;6.50;99.90;;;;;;7397230;32;20830;-61
2022/09/21 03:31:35;;;;;;;5.75;2.75;;;6.40;99.90;;;;;;7372150;32;20873;-61
2022/09/21 03:35:37;;;;;;;9.00;2.80;;;6.40;99.90;;;;;;7370644;32;20161;-60
2022/09/21 03:39:38;;;;;;;5.15;2.42;;;6.30;99.90;;;;;;7387043;32;20141;-61
2022/09/21 03:43:40;;;;;;;6.60;2.40;;;6.30;99.90;;;;;;7379329;32;20558;-63
2022/09/21 03:47:42;;;;;;;5.57;2.70;;;6.20;99.90;;;;;;7371741;32;20130;-62
2022/09/21 03:51:44;;;;;;;8.25;3.05;;;6.20;99.90;;;;;;7371767;32;20194;-61
2022/09/21 03:55:45;;;;;;;11.38;2.92;;;6.30;99.90;;;;;;7362682;32;20191;-61
2022/09/21 03:59:47;;;;;;;5.60;2.30;;;6.20;99.90;;;;;;7366646;32;20812;-61
2022/09/21 04:03:49;;;;;;;7.55;2.20;;;6.20;99.90;;;;;;7369813;32;20103;-61
2022/09/21 04:07:53;;;;;;;5.70;2.40;;;6.20;99.90;;;;;;7368859;32;20504;-63
2022/09/21 04:11:55;;;;;;;8.60;2.40;;;6.10;99.90;;;;;;7368917;32;20107;-63
2022/09/21 04:15:57;;;;;;;4.10;2.47;;;6.00;99.90;;;;;;7371516;32;20220;-62
2022/09/21 04:20:00;;;;;;;8.60;3.00;;;6.00;99.90;;;;;;7371728;32;20120;-60
2022/09/21 04:24:01;;;;;;;5.45;2.53;;;5.90;99.90;;;;;;7370507;32;20111;-60
2022/09/21 04:28:03;;;;;;;6.07;2.40;;;5.90;99.90;;;;;;7367050;32;20133;-60
2022/09/21 04:32:05;;;;;;;11.52;2.58;;;5.90;99.90;;;;;;7365589;32;20511;-60
2022/09/21 04:36:06;;;;;;;9.20;2.42;;;5.80;99.90;;;;;;7362828;32;20118;-61
2022/09/21 04:40:08;;;;;;;3.60;1.98;;;5.90;99.90;;;;;;7374497;32;20110;-61
2022/09/21 04:44:10;;;;;;;5.75;2.35;;;5.80;99.90;;;;;;7370729;32;20091;-60
2022/09/21 04:48:12;;;;;;;4.97;2.30;;;5.80;99.90;;;;;;7372350;32;20137;-61
2022/09/21 04:52:13;;;;;;;5.65;2.30;;;5.70;99.90;;;;;;7372335;32;20108;-60
2022/09/21 04:56:19;;;;;;;6.03;3.50;;;5.80;99.90;;;;;;7382017;32;20160;-60
2022/09/21 05:00:21;;;;;;;17.55;9.25;;;5.70;99.90;;;;;;7379512;32;20106;-60
2022/09/21 05:04:23;;;;;;;17.00;7.03;;;5.70;99.90;;;;;;7364478;32;20190;-61
2022/09/21 05:12:47;;;;;;;9.27;4.20;;;5.60;99.90;;;;;;7350347;32;20220;-60
2022/09/21 05:16:48;;;;;;;6.62;3.33;;;5.60;99.90;;;;;;7355068;32;20216;-60
2022/09/21 05:20:57;;;;;;;7.50;4.40;;;5.50;99.90;;;;;;7360722;32;20172;-61
2022/09/21 05:24:59;;;;;;;10.25;5.20;;;5.50;99.90;;;;;;7370196;32;20491;-62
2022/09/21 05:29:01;;;;;;;6.68;5.15;;;5.40;99.90;;;;;;7382020;32;20142;-64
2022/09/21 05:33:04;;;;;;;10.57;4.45;;;5.40;99.90;;;;;;7370092;32;20690;-62
2022/09/21 05:37:26;;;;;;;11.50;5.82;;;5.40;99.90;;;;;;7370879;32;20195;-62
2022/09/21 05:41:27;;;;;;;8.77;5.22;;;5.40;99.90;;;;;;7373780;32;20153;-62
2022/09/21 05:45:30;;;;;;;9.82;5.40;;;5.50;99.90;;;;;;7358969;32;20524;-63
2022/09/21 05:50:10;;;;;;;17.77;6.20;;;5.50;99.90;;;;;;7373283;32;20490;-64
2022/09/21 05:54:20;;;;;;;5.62;3.22;;;5.40;99.90;;;;;;7375896;32;20149;-63
2022/09/21 05:58:41;;;;;;;14.52;6.22;;;5.50;99.90;;;;;;7373947;32;20649;-63
2022/09/21 06:02:51;;;;;;;7.37;4.28;;;5.50;99.90;;;;;;7371403;32;20115;-62
2022/09/21 06:06:53;;;;;;;6.12;2.92;;;5.50;99.90;;;;;;7367629;32;20566;-62
2022/09/21 06:10:55;;;;;;;6.05;2.58;;;5.60;99.90;;;;;;7368713;32;20225;-64
2022/09/21 06:14:57;;;;;;;8.38;2.42;;;5.60;99.90;;;;;;7371984;32;20130;-61
2022/09/21 06:18:59;;;;;;;7.62;4.22;;;5.70;99.90;;;;;;7362728;32;20605;-63
2022/09/21 06:23:11;;;;;;;8.05;4.93;;;5.70;99.90;;;;;;7374936;32;20110;-64
2022/09/21 06:27:13;;;;;;;9.25;4.00;;;5.90;99.90;;;;;;7361761;32;20157;-63
2022/09/21 06:31:15;;;;;;;8.45;3.90;;;6.00;99.90;;;;;;7362660;32;20221;-63
2022/09/21 06:35:16;;;;;;;10.48;4.35;;;6.00;99.90;;;;;;7373699;32;20217;-63
2022/09/21 06:39:18;;;;;;;13.38;4.93;;;6.10;99.90;;;;;;7376378;32;20147;-64
2022/09/21 06:43:20;;;;;;;9.32;5.10;;;6.30;99.90;;;;;;7376575;32;20287;-64
2022/09/21 06:47:22;;;;;;;9.43;4.60;;;6.30;99.90;;;;;;7378592;32;20201;-63
2022/09/21 06:51:24;;;;;;;9.38;4.43;;;6.40;99.90;;;;;;7375191;32;20630;-64
2022/09/21 06:55:26;;;;;;;7.50;3.92;;;6.50;99.90;;;;;;7377713;32;20673;-64
2022/09/21 06:59:28;;;;;;;6.68;4.00;;;6.60;99.90;;;;;;7379154;32;20753;-64
2022/09/21 07:03:30;;;;;;;6.32;3.92;;;6.80;99.90;;;;;;7373838;32;20124;-63
2022/09/21 07:07:32;;;;;;;8.73;3.78;;;7.00;99.90;;;;;;7362099;32;20520;-64
2022/09/21 07:11:33;;;;;;;7.78;3.55;;;7.10;99.90;;;;;;7368817;32;20201;-64
2022/09/21 07:15:35;;;;;;;8.88;4.85;;;7.30;99.90;;;;;;7386381;32;20159;-64
2022/09/21 07:19:36;;;;;;;13.93;7.93;;;7.50;99.90;;;;;;7375181;32;20201;-64
2022/09/21 07:23:38;;;;;;;20.12;11.88;;;7.70;99.90;;;;;;7378819;32;20744;-64
2022/09/21 07:27:40;;;;;;;25.75;13.88;;;7.90;99.90;;;;;;7388267;32;20125;-64
2022/09/21 07:31:44;;;;;;;23.38;14.00;;;8.20;99.90;;;;;;7370898;32;20125;-64
2022/09/21 07:35:55;;;;;;;22.98;14.43;;;8.40;99.90;;;;;;7369764;32;20335;-64
2022/09/21 07:39:57;;;;;;;17.17;12.52;;;8.60;99.90;;;;;;7364462;32;20194;-64
2022/09/21 07:43:58;;;;;;;20.92;13.68;;;8.80;99.90;;;;;;7381434;32;20102;-64
2022/09/21 07:48:04;;;;;;;18.42;14.32;;;8.90;99.90;;;;;;7385523;32;20106;-64
2022/09/21 07:52:05;;;;;;;26.85;15.48;;;9.10;99.90;;;;;;7370310;31;20115;-64
2022/09/21 07:56:14;;;;;;;22.83;13.43;;;9.30;99.90;;;;;;7369213;32;20212;-65
2022/09/21 08:00:16;;;;;;;20.48;13.80;;;9.40;99.90;;;;;;7366061;32;20129;-64
2022/09/21 08:04:18;;;;;;;24.12;14.02;;;9.60;99.90;;;;;;7379945;32;20750;-64
2022/09/21 08:08:19;;;;;;;19.37;13.20;;;9.70;99.90;;;;;;7368922;32;20511;-64
2022/09/21 08:12:21;;;;;;;21.95;12.45;;;9.80;99.90;;;;;;7371330;32;20237;-65
2022/09/21 08:16:24;;;;;;;25.30;12.60;;;9.90;99.90;;;;;;7373564;32;20099;-64
2022/09/21 08:20:26;;;;;;;16.75;10.70;;;10.20;99.90;;;;;;7381150;32;20617;-64
2022/09/21 08:24:27;;;;;;;17.55;9.60;;;10.50;99.90;;;;;;7385423;32;20119;-64
2022/09/21 08:28:30;;;;;;;18.27;8.88;;;11.00;99.90;;;;;;7370645;32;20558;-64
2022/09/21 08:32:34;;;;;;;13.38;7.32;;;11.30;99.90;;;;;;7366510;32;20491;-64
2022/09/21 08:36:51;;;;;;;13.45;7.05;;;11.50;99.90;;;;;;7392622;32;20862;-64
2022/09/21 08:40:56;;;;;;;11.70;6.55;;;11.60;99.90;;;;;;7382045;32;20131;-63
2022/09/21 08:45:04;;;;;;;11.70;6.35;;;11.80;99.90;;;;;;7354859;32;20178;-62
2022/09/21 08:49:11;;;;;;;10.75;5.95;;;11.90;99.90;;;;;;7379710;32;20152;-63
2022/09/21 08:53:20;;;;;;;11.35;4.93;;;12.00;99.90;;;;;;7372367;32;20508;-62
2022/09/21 08:57:28;;;;;;;9.80;5.40;;;12.10;99.90;;;;;;7369612;32;20277;-63
2022/09/21 09:02:08;;;;;;;9.02;4.00;;;12.10;99.90;;;;;;7370184;32;20103;-63
2022/09/21 09:06:18;;;;;;;9.70;3.60;;;12.40;99.90;;;;;;7378633;32;20202;-63
2022/09/21 09:10:37;;;;;;;7.65;3.55;;;12.50;99.90;;;;;;7371269;32;20198;-63
2022/09/21 09:14:56;;;;;;;6.22;3.20;;;12.70;99.90;;;;;;7379548;32;20123;-63
2022/09/21 09:19:38;;;;;;;6.82;2.85;;;13.00;99.90;;;;;;7377607;32;20117;-63
2022/09/21 09:23:45;;;;;;;10.90;2.55;;;13.40;99.90;;;;;;7366703;32;20249;-64
2022/09/21 09:27:51;;;;;;;;;;;13.90;99.90;;;;;;7386479;32;20204;-63
2022/09/21 09:31:54;;;;;;;5.85;2.10;;;14.60;99.90;;;;;;7372919;32;20010;-63
2022/09/21 09:36:04;;;;;;;5.80;1.92;;;15.70;99.90;;;;;;7373014;31;20130;-64
2022/09/21 09:40:07;;;;;;;7.00;1.83;;;16.70;99.90;;;;;;7370666;32;20444;-64
2022/09/21 09:44:30;;;;;;;4.20;1.10;;;17.90;99.90;;;;;;7388177;32;20305;-65
2022/09/21 09:48:39;;;;;;;5.95;1.12;;;18.90;99.90;;;;;;7381609;32;20099;-65
2022/09/21 09:52:43;;;;;;;5.22;1.30;;;19.40;99.90;;;;;;7363642;32;20595;-65
2022/09/21 09:56:45;;;;;;;5.35;0.80;;;20.00;99.90;;;;;;7380155;32;20181;-64
2022/09/21 10:00:52;;;;;;;4.18;1.60;;;20.80;99.90;;;;;;7376992;32;20186;-63
2022/09/21 10:05:04;;;;;;;5.40;1.55;;;21.20;99.90;;;;;;7382934;32;20118;-64
2022/09/21 10:09:23;;;;;;;6.65;1.10;;;21.40;99.90;;;;;;7367431;32;20103;-63
2022/09/21 10:13:32;;;;;;;5.12;1.20;;;22.10;99.90;;;;;;7361545;32;20186;-62
2022/09/21 10:17:33;;;;;;;5.85;1.30;;;22.20;99.90;;;;;;7370321;32;20530;-63
2022/09/21 10:21:45;;;;;;;5.68;1.42;;;20.80;99.90;;;;;;7367876;32;20494;-64
2022/09/21 10:25:56;;;;;;;5.45;1.50;;;19.80;99.90;;;;;;7369130;32;20095;-64
2022/09/21 10:29:58;;;;;;;3.65;1.40;;;20.10;99.90;;;;;;7367228;32;20107;-64
2022/09/21 10:34:11;;;;;;;4.87;1.30;;;19.90;99.90;;;;;;7360669;32;20202;-63
2022/09/21 10:38:26;;;;;;;5.75;1.30;;;19.70;99.90;;;;;;7368923;32;20714;-64
2022/09/21 10:42:36;;;;;;;5.87;1.42;;;18.10;99.90;;;;;;7364661;32;20132;-63
2022/09/21 10:46:37;;;;;;;6.90;1.52;;;17.20;99.90;;;;;;7365863;32;20217;-63
2022/09/21 10:50:41;;;;;;;6.10;1.20;;;17.30;99.90;;;;;;7368922;32;20917;-64
2022/09/21 10:54:42;;;;;;;8.25;1.20;;;17.30;99.90;;;;;;7367221;32;20102;-64
2022/09/21 10:59:13;;;;;;;6.10;1.05;;;17.00;99.90;;;;;;7370221;32;20111;-64
2022/09/21 11:03:43;;;;;;;3.62;1.20;;;16.80;99.90;;;;;;7362975;32;20126;-64
2022/09/21 11:07:47;;;;;;;4.57;1.23;;;16.40;99.90;;;;;;7369769;32;20125;-64
2022/09/21 11:12:11;;;;;;;5.85;1.25;;;16.80;99.90;;;;;;7365676;32;20149;-63
2022/09/21 11:16:15;;;;;;;7.60;1.20;;;17.10;99.90;;;;;;7366424;32;20543;-63
2022/09/21 11:20:26;;;;;;;4.30;1.08;;;17.00;99.90;;;;;;7363698;32;20158;-63
2022/09/21 11:24:43;;;;;;;5.95;1.60;;;17.00;99.90;;;;;;7367353;32;20107;-63
2022/09/21 11:29:11;;;;;;;5.12;1.10;;;16.90;99.90;;;;;;7371220;32;20110;-63
2022/09/21 11:33:27;;;;;;;;;;;17.10;99.90;;;;;;7363955;32;20103;-63
2022/09/21 11:37:47;;;;;;;5.75;0.98;;;17.30;99.90;;;;;;7370235;32;20474;-63
2022/09/21 11:42:05;;;;;;;6.53;1.37;;;17.50;99.90;;;;;;7372268;32;20107;-63
2022/09/21 11:46:41;;;;;;;5.25;1.10;;;17.90;99.90;;;;;;7378872;32;20217;-64
2022/09/21 11:50:55;;;;;;;7.57;1.35;;;17.90;99.90;;;;;;7370336;32;20848;-63
2022/09/21 11:55:23;;;;;;;8.43;1.40;;;17.90;99.90;;;;;;7373781;32;20111;-63
2022/09/21 11:59:34;;;;;;;;;;;17.70;99.90;;;;;;7381977;32;20130;-63
2022/09/21 12:04:16;;;;;;;5.03;1.20;;;17.90;99.90;;;;;;7374950;32;20428;-63
2022/09/21 12:08:21;;;;;;;5.07;1.27;;;17.40;99.90;;;;;;7370999;31;20202;-63
2022/09/21 12:12:35;;;;;;;7.72;1.33;;;17.30;99.90;;;;;;7372556;32;20111;-63
2022/09/21 12:17:07;;;;;;;3.55;0.90;;;17.00;99.90;;;;;;7372696;32;20136;-63
2022/09/21 12:21:12;;;;;;;6.40;0.95;;;16.90;99.90;;;;;;7374592;32;20952;-63
2022/09/21 12:25:26;;;;;;;4.85;1.30;;;16.70;99.90;;;;;;7365571;32;20585;-63
2022/09/21 12:29:46;;;;;;;4.55;1.05;;;16.60;99.90;;;;;;7374833;32;20107;-62
2022/09/21 12:34:11;;;;;;;6.45;1.33;;;16.10;99.90;;;;;;7372492;32;20217;-62
2022/09/21 12:38:16;;;;;;;3.37;0.73;;;16.20;99.90;;;;;;7375236;32;20133;-64
2022/09/21 12:42:42;;;;;;;9.27;0.90;;;16.60;99.90;;;;;;7375060;32;20231;-63
2022/09/21 12:46:49;;;;;;;6.53;1.00;;;16.50;99.90;;;;;;7373471;32;20502;-63
2022/09/21 12:51:00;;;;;;;3.35;0.82;;;16.60;99.90;;;;;;7380903;32;20454;-63
2022/09/21 12:55:27;;;;;;;4.25;1.00;;;16.40;99.90;;;;;;7369211;32;20933;-63
2022/09/21 12:59:39;;;;;;;3.62;0.90;;;16.30;99.90;;;;;;7366447;32;20470;-59
2022/09/21 13:03:44;;;;;;;5.78;1.02;;;16.20;99.90;;;;;;7375728;32;20546;-60
2022/09/21 13:08:24;;;;;;;7.18;1.37;;;16.30;99.90;;;;;;7371215;32;20131;-59
2022/09/21 13:12:43;;;;;;;5.15;1.42;;;16.30;99.90;;;;;;7368239;32;20149;-60
2022/09/21 13:16:56;;;;;;;3.95;1.05;;;16.30;99.90;;;;;;7367220;32;20507;-59
2022/09/21 13:21:00;;;;;;;3.87;0.90;;;16.40;99.90;;;;;;7373824;32;20201;-60
2022/09/21 13:25:18;;;;;;;5.60;1.10;;;16.50;99.90;;;;;;7358496;32;20133;-60
2022/09/21 13:29:20;;;;;;;4.05;1.02;;;16.40;99.90;;;;;;7365411;32;20289;-60
2022/09/21 13:33:22;;;;;;;4.95;0.95;;;16.50;99.90;;;;;;7368097;32;20186;-59
2022/09/21 13:37:28;;;;;;;6.90;1.25;;;16.80;99.90;;;;;;7371951;32;20466;-64
2022/09/21 13:41:30;;;;;;;4.53;1.10;;;17.00;99.90;;;;;;7371530;32;20132;-64
2022/09/21 13:45:54;;;;;;;4.85;1.25;;;17.10;99.90;;;;;;7379248;32;20194;-65
2022/09/21 13:49:57;;;;;;;8.88;1.10;;;17.50;99.90;;;;;;7378271;32;20134;-64
2022/09/21 13:54:02;;;;;;;3.85;1.00;;;17.20;99.90;;;;;;7373645;32;20103;-64
2022/09/21 13:58:17;;;;;;;3.10;0.88;;;17.40;99.90;;;;;;7369584;32;20095;-65
2022/09/21 14:02:31;;;;;;;4.32;1.00;;;17.70;99.90;;;;;;7361362;32;20581;-65
2022/09/21 14:06:41;;;;;;;4.55;1.17;;;17.70;99.90;;;;;;7361989;32;20107;-64
2022/09/21 14:11:07;;;;;;;5.47;1.00;;;18.00;99.90;;;;;;7359481;32;20218;-66
2022/09/21 14:15:21;;;;;;;7.85;1.23;;;18.00;99.90;;;;;;7375731;32;20243;-64
2022/09/21 14:19:25;;;;;;;4.78;1.17;;;18.50;99.90;;;;;;7367112;32;20563;-66
2022/09/21 14:23:28;;;;;;;5.75;0.90;;;18.40;99.90;;;;;;7364167;32;20111;-65
2022/09/21 14:27:35;;;;;;;2.70;0.82;;;18.40;99.90;;;;;;7366977;32;20102;-64
2022/09/21 14:31:38;;;;;;;6.95;1.10;;;18.40;99.90;;;;;;7369222;32;20106;-63
2022/09/21 14:35:44;;;;;;;7.32;1.10;;;18.30;99.90;;;;;;7363673;32;20115;-66
2022/09/21 14:39:47;;;;;;;5.97;0.82;;;18.10;99.90;;;;;;7366222;32;20234;-63
2022/09/21 14:43:53;;;;;;;3.72;0.82;;;18.10;99.90;;;;;;7364478;32;20186;-63
2022/09/21 14:48:01;;;;;;;3.75;0.73;;;17.80;99.90;;;;;;7358569;32;20130;-63
2022/09/21 14:52:33;;;;;;;2.92;0.80;;;17.70;99.90;;;;;;7362212;32;20123;-64
2022/09/21 14:57:01;;;;;;;2.28;1.00;;;17.50;99.90;;;;;;7376758;32;20107;-64
2022/09/21 15:01:35;;;;;;;3.55;0.88;;;17.40;99.90;;;;;;7361478;32;20226;-63
2022/09/21 15:05:42;;;;;;;2.80;0.70;;;17.30;99.90;;;;;;7367147;32;20125;-64
2022/09/21 15:14:38;;;;;;;2.35;0.77;;;17.30;99.90;;;;;;7368872;32;20140;-64
2022/09/21 15:18:40;;;;;;;2.70;0.55;;;17.20;99.90;;;;;;7364004;32;20209;-64
2022/09/21 15:22:57;;;;;;;3.60;0.60;;;17.00;99.90;;;;;;7366110;32;20115;-63
2022/09/21 15:27:14;;;;;;;3.00;0.80;;;16.80;99.90;;;;;;7362383;32;20628;-62
2022/09/21 15:31:16;;;;;;;3.23;1.00;;;16.40;99.90;;;;;;7363669;32;20111;-63
2022/09/21 15:35:27;;;;;;;4.00;0.77;;;16.20;99.90;;;;;;7367035;32;20112;-64
2022/09/21 15:39:30;;;;;;;4.12;0.55;;;16.40;99.90;;;;;;7368310;32;20135;-63
2022/09/21 15:43:41;;;;;;;2.72;0.60;;;16.40;99.90;;;;;;7367331;32;20570;-63
2022/09/21 15:47:50;;;;;;;4.87;0.80;;;16.50;99.90;;;;;;7366561;32;20630;-63
2022/09/21 15:52:04;;;;;;;2.97;0.60;;;16.70;99.90;;;;;;7361541;32;20571;-64
2022/09/21 15:56:07;;;;;;;3.17;0.60;;;16.70;99.90;;;;;;7367410;32;20234;-63
2022/09/21 16:00:15;;;;;;;3.72;0.50;;;16.60;99.90;;;;;;7368069;32;20145;-63
2022/09/21 16:04:20;;;;;;;5.18;0.60;;;16.70;99.90;;;;;;7363482;32;20375;-62
2022/09/21 16:08:30;;;;;;;3.83;1.00;;;16.60;99.90;;;;;;7367028;32;20208;-63
2022/09/21 16:12:43;;;;;;;4.12;0.60;;;16.50;99.90;;;;;;7367006;32;20130;-63
2022/09/21 16:17:13;;;;;;;5.47;0.82;;;16.50;99.90;;;;;;7371233;32;20133;-63
2022/09/21 16:21:31;;;;;;;3.62;0.57;;;16.30;99.90;;;;;;7369296;32;20440;-63
2022/09/21 16:25:36;;;;;;;4.68;0.75;;;16.20;99.90;;;;;;7369755;32;20141;-63
2022/09/21 16:29:42;;;;;;;4.43;0.70;;;16.20;99.90;;;;;;7370063;32;20099;-63
2022/09/21 16:33:47;;;;;;;2.25;0.40;;;16.10;99.90;;;;;;7373808;32;20110;-64
2022/09/21 16:37:49;;;;;;;3.90;1.00;;;16.00;99.90;;;;;;7368928;32;20172;-63
2022/09/21 16:41:58;;;;;;;4.75;1.08;;;15.70;99.90;;;;;;7368280;32;20129;-64
2022/09/21 16:46:01;;;;;;;6.50;0.95;;;15.50;99.90;;;;;;7371665;32;20112;-63
2022/09/21 16:50:09;;;;;;;2.87;0.55;;;15.30;99.90;;;;;;7369443;32;20107;-64
2022/09/21 16:54:11;;;;;;;3.90;0.80;;;15.20;99.90;;;;;;7370218;32;20138;-63
2022/09/21 16:58:12;;;;;;;2.12;0.50;;;15.00;99.90;;;;;;7367502;32;20138;-64
2022/09/21 17:02:15;;;;;;;3.87;0.62;;;14.90;99.90;;;;;;7365903;32;20126;-64
2022/09/21 17:06:19;;;;;;;4.20;0.88;;;14.70;99.90;;;;;;7371011;32;20539;-65
2022/09/21 17:10:28;;;;;;;4.40;0.60;;;14.40;99.90;;;;;;7367065;32;20115;-64
2022/09/21 17:14:34;;;;;;;2.80;0.70;;;14.10;99.90;;;;;;7365776;32;20176;-62
2022/09/21 17:18:36;;;;;;;5.18;0.73;;;13.80;99.90;;;;;;7367030;32;20103;-63
2022/09/21 17:22:38;;;;;;;9.38;6.22;;;13.50;99.90;;;;;;7367187;32;20133;-65
2022/09/21 17:26:40;;;;;;;3.53;0.90;;;13.20;99.90;;;;;;7372274;32;20190;-63
2022/09/21 17:30:43;;;;;;;5.15;0.80;;;12.90;99.90;;;;;;7371306;32;20137;-64
2022/09/21 17:34:48;;;;;;;3.62;0.70;;;12.60;99.90;;;;;;7369760;32;20123;-63
2022/09/21 17:38:50;;;;;;;4.43;1.10;;;12.40;99.90;;;;;;7368805;32;20262;-63
2022/09/21 17:42:56;;;;;;;5.50;0.90;;;12.10;99.90;;;;;;7369205;32;20119;-64
2022/09/21 17:46:59;;;;;;;16.08;9.63;;;12.00;99.90;;;;;;7365830;32;20554;-60
2022/09/21 17:51:01;;;;;;;4.37;0.95;;;11.80;99.90;;;;;;7365715;32;20107;-60
2022/09/21 17:55:07;;;;;;;6.70;1.30;;;11.60;99.90;;;;;;7363246;32;20268;-60
2022/09/21 17:59:32;;;;;;;7.53;1.20;;;11.40;99.90;;;;;;7371491;32;20164;-60
2022/09/21 18:03:39;;;;;;;6.40;0.90;;;11.30;99.90;;;;;;7369714;32;20205;-60
2022/09/21 18:07:42;;;;;;;8.52;1.12;;;11.10;99.90;;;;;;7373738;32;20136;-61
2022/09/21 18:12:14;;;;;;;2.58;0.80;;;10.90;99.90;;;;;;7366276;32;20138;-60
2022/09/21 18:16:46;;;;;;;1.25;0.68;;;10.80;99.90;;;;;;7369217;32;20792;-60
2022/09/21 18:21:21;;;;;;;3.70;0.80;;;10.60;99.90;;;;;;7358592;32;20233;-61
2022/09/21 18:25:51;;;;;;;3.12;0.93;;;10.40;99.90;;;;;;7362063;32;20127;-64
2022/09/21 18:29:53;;;;;;;3.28;1.40;;;10.30;99.90;;;;;;7365651;32;20133;-64
2022/09/21 18:34:14;;;;;;;4.15;1.45;;;10.20;99.90;;;;;;7361112;32;20107;-60
2022/09/21 18:38:29;;;;;;;3.70;1.40;;;10.10;99.90;;;;;;7363016;32;20261;-61
2022/09/21 18:42:54;;;;;;;4.18;1.60;;;10.00;99.90;;;;;;7377751;32;20103;-62
2022/09/21 18:47:05;;;;;;;2.28;1.37;;;9.90;99.90;;;;;;7359850;32;20130;-63
2022/09/21 18:51:33;;;;;;;3.87;1.65;;;9.70;99.90;;;;;;7366855;32;20852;-61
2022/09/21 18:55:36;;;;;;;3.40;1.62;;;9.70;99.90;;;;;;7363240;32;20161;-62
2022/09/21 18:59:38;;;;;;;4.60;2.05;;;9.60;99.90;;;;;;7361537;32;20489;-61
2022/09/21 19:03:42;;;;;;;4.75;2.20;;;9.50;99.90;;;;;;7368222;32;20782;-61
2022/09/21 19:08:13;;;;;;;7.37;2.05;;;9.40;99.90;;;;;;7357927;32;20119;-62
2022/09/21 19:12:46;;;;;;;4.32;1.50;;;9.30;99.90;;;;;;7367088;32;20208;-62
2022/09/21 19:17:02;;;;;;;3.22;1.85;;;9.30;99.90;;;;;;7365122;32;20167;-61
2022/09/21 19:21:39;;;;;;;5.57;1.60;;;9.20;99.90;;;;;;7368976;32;20126;-60
2022/09/21 19:26:04;;;;;;;4.97;1.70;;;9.10;99.90;;;;;;7349464;32;20122;-61
2022/09/21 19:30:11;;;;;;;7.30;1.60;;;9.00;99.90;;;;;;7360233;32;20260;-61
2022/09/21 19:34:15;;;;;;;9.52;1.37;;;9.00;99.90;;;;;;7369349;32;20107;-62
2022/09/21 19:38:18;;;;;;;4.05;1.35;;;8.90;99.90;;;;;;7363254;32;20618;-62
2022/09/21 19:42:31;;;;;;;4.07;1.45;;;8.90;99.90;;;;;;7362753;32;20166;-62
2022/09/21 19:46:36;;;;;;;6.47;1.55;;;9.00;99.90;;;;;;7371602;32;20878;-62
2022/09/21 19:50:46;;;;;;;5.60;1.77;;;8.90;99.90;;;;;;7370193;32;20111;-62
2022/09/21 20:03:38;;;;;;;4.35;1.58;;;8.70;99.90;;;;;;7360141;32;20119;-62
2022/09/21 20:07:58;;;;;;;8.38;1.85;;;8.60;99.90;;;;;;7366673;32;20194;-62
2022/09/21 20:12:26;;;;;;;6.30;2.00;;;8.60;99.90;;;;;;7371874;32;20211;-61
2022/09/21 20:17:00;;;;;;;7.15;1.65;;;8.50;99.90;;;;;;7369871;32;20474;-61
2022/09/21 20:21:03;;;;;;;5.20;1.60;;;8.50;99.90;;;;;;7360193;32;20111;-61
2022/09/21 20:25:08;;;;;;;11.35;1.70;;;8.50;99.90;;;;;;7365487;32;20741;-61
2022/09/21 20:29:10;;;;;;;6.18;1.73;;;8.50;99.90;;;;;;7362167;32;20457;-61
2022/09/21 20:33:14;;;;;;;3.60;1.77;;;8.40;99.90;;;;;;7363850;32;20130;-60
2022/09/21 20:37:17;;;;;;;6.65;1.80;;;8.40;99.90;;;;;;7361617;32;20133;-59
2022/09/21 20:41:20;;;;;;;5.45;2.00;;;8.30;99.90;;;;;;7355636;32;20179;-61
2022/09/21 20:45:22;;;;;;;4.12;1.87;;;8.30;99.90;;;;;;7360090;32;20666;-62
2022/09/21 20:49:24;;;;;;;4.37;2.00;;;8.20;99.90;;;;;;7356728;32;20122;-62
2022/09/21 20:53:25;;;;;;;4.57;2.25;;;8.10;99.90;;;;;;7358346;32;20118;-61
2022/09/21 20:57:27;;;;;;;7.37;2.17;;;8.00;99.90;;;;;;7356730;32;20213;-64
2022/09/21 21:01:29;;;;;;;7.30;1.90;;;8.00;99.90;;;;;;7363803;32;20174;-61
2022/09/21 21:05:31;;;;;;;6.93;1.87;;;7.90;99.90;;;;;;7360568;32;20198;-64
2022/09/21 21:09:33;;;;;;;5.03;1.83;;;7.90;99.90;;;;;;7365201;32;20106;-62
2022/09/21 21:13:35;;;;;;;7.12;2.17;;;7.90;99.90;;;;;;7364342;32;20186;-62
2022/09/21 21:17:37;;;;;;;6.12;2.08;;;7.80;99.90;;;;;;7363249;32;20125;-62
2022/09/21 21:21:39;;;;;;;8.43;1.90;;;7.80;99.90;;;;;;7364388;32;20095;-62
2022/09/21 21:25:41;;;;;;;5.47;2.28;;;7.70;99.90;;;;;;7365178;32;20133;-63
2022/09/21 21:29:50;;;;;;;6.05;2.00;;;7.70;99.90;;;;;;7365553;32;20117;-61
2022/09/21 21:33:52;;;;;;;7.15;2.67;;;7.60;99.90;;;;;;7367544;32;20737;-61
2022/09/21 21:37:54;;;;;;;7.75;2.08;;;7.60;99.90;;;;;;7362317;32;20624;-60
2022/09/21 21:41:56;;;;;;;5.87;2.28;;;7.60;99.90;;;;;;7363752;32;20508;-59
2022/09/21 21:45:58;;;;;;;5.37;2.28;;;7.60;99.90;;;;;;7365647;32;20707;-60
2022/09/21 21:50:03;;;;;;;7.75;2.30;;;7.60;99.90;;;;;;7380990;32;20122;-60
2022/09/21 21:54:05;;;;;;;6.00;2.47;;;7.50;99.90;;;;;;7370066;32;20467;-60
2022/09/21 21:58:07;;;;;;;7.30;2.10;;;7.50;99.90;;;;;;7379285;32;20190;-60